Time;durP1;ratioP1;P1;durP2;ratioP2;P2;SDS_P1;SDS_P2;PMS_P1;PMS_P2;Temp;Humidity;BMP_temperature;BMP_pressure;BME280_temperature;BME280_humidity;BME280_pressure;Samples;Min_cycle;Max_cycle;Signal;HPM_P1;HPM_P2
2021/11/22 00:01:43;;;;;;;72.53;35.80;;;;;;;6.72;86.44;98605.39;4265951;82;21360;-83
2021/11/22 00:07:44;;;;;;;72.95;35.45;;;;;;;6.71;86.30;98600.31;4263270;82;21070;-83
2021/11/22 00:13:46;;;;;;;65.22;32.30;;;;;;;6.73;86.50;98604.27;4270081;82;21053;-83
2021/11/22 00:20:00;;;;;;;67.12;34.43;;;;;;;6.67;86.74;98604.31;4269774;82;21019;-83
2021/11/22 00:26:01;;;;;;;64.42;34.92;;;;;;;6.66;87.01;98612.83;4265178;82;21637;-83
2021/11/22 00:32:05;;;;;;;75.87;38.65;;;;;;;6.67;86.75;98614.42;4263589;82;21022;-83
2021/11/22 00:38:09;;;;;;;79.72;40.30;;;;;;;6.64;86.91;98624.07;4243991;82;21022;-83
2021/11/22 00:44:10;;;;;;;80.03;39.35;;;;;;;6.64;86.99;98629.51;4267083;82;20988;-83
2021/11/22 00:50:12;;;;;;;84.40;43.33;;;;;;;6.66;87.06;98638.67;4269992;82;20982;-83
2021/11/22 00:56:16;;;;;;;87.25;42.90;;;;;;;6.58;86.87;98651.34;4240133;82;21051;-83
2021/11/22 01:02:17;;;;;;;85.05;43.58;;;;;;;6.58;87.20;98660.09;4216888;83;21094;-83
2021/11/22 01:08:19;;;;;;;82.30;42.60;;;;;;;6.57;87.09;98664.73;4206300;83;21044;-82
2021/11/22 01:14:20;;;;;;;81.10;42.15;;;;;;;6.54;87.42;98657.85;4206553;83;21686;-83
2021/11/22 01:20:31;;;;;;;83.03;41.85;;;;;;;6.59;87.56;98658.38;4204222;83;21019;-82
2021/11/22 01:26:33;;;;;;;81.70;42.17;;;;;;;6.64;87.56;98653.98;4208948;83;21038;-82
2021/11/22 01:32:35;;;;;;;79.82;40.65;;;;;;;6.60;87.33;98661.30;4201920;83;21553;-83
2021/11/22 01:38:37;;;;;;;80.07;41.75;;;;;;;6.57;87.51;98666.09;4130234;84;21037;-84
2021/11/22 01:44:38;;;;;;;85.62;42.48;;;;;;;6.48;87.66;98664.16;4206699;83;21047;-83
2021/11/22 01:50:41;;;;;;;79.47;38.30;;;;;;;6.46;87.65;98655.56;4200556;83;21047;-82
2021/11/22 01:56:47;;;;;;;76.70;39.27;;;;;;;6.49;87.93;98667.64;4195209;83;21132;-82
2021/11/22 02:02:48;;;;;;;83.17;41.55;;;;;;;6.51;87.75;98664.80;4204919;83;21100;-82
2021/11/22 02:08:50;;;;;;;90.30;44.33;;;;;;;6.50;87.87;98677.40;4129902;84;21043;-82
2021/11/22 02:14:51;;;;;;;86.85;45.05;;;;;;;6.44;88.11;98665.99;4196228;83;21073;-82
2021/11/22 02:20:54;;;;;;;86.05;42.43;;;;;;;6.43;88.30;98678.02;4205478;83;21063;-82
2021/11/22 02:26:56;;;;;;;90.85;45.17;;;;;;;6.29;87.99;98670.35;4196873;82;21005;-82
2021/11/22 02:33:01;;;;;;;81.15;40.23;;;;;;;6.08;87.98;98675.84;4194574;83;21704;-82
2021/11/22 02:39:03;;;;;;;88.03;42.03;;;;;;;6.00;88.55;98672.17;4191392;83;21077;-82
2021/11/22 02:45:05;;;;;;;80.87;42.90;;;;;;;5.94;88.61;98687.17;4197717;83;21029;-82
2021/11/22 02:51:07;;;;;;;85.12;42.17;;;;;;;5.87;88.73;98688.34;4193482;83;21014;-83
2021/11/22 02:57:11;;;;;;;92.92;44.90;;;;;;;5.74;88.70;98689.56;4186447;83;21088;-82
2021/11/22 03:03:12;;;;;;;89.47;44.23;;;;;;;5.63;88.91;98693.94;4190251;83;21065;-82
2021/11/22 03:09:14;;;;;;;84.58;43.05;;;;;;;5.58;89.19;98706.41;4188797;83;21499;-82
2021/11/22 03:15:18;;;;;;;98.15;46.53;;;;;;;5.51;89.23;98708.16;4188558;83;21025;-82
2021/11/22 03:21:20;;;;;;;96.05;49.27;;;;;;;5.42;88.84;98707.53;4190355;83;21092;-82
2021/11/22 03:27:22;;;;;;;102.15;49.83;;;;;;;5.30;88.94;98700.23;4192500;83;21088;-82
2021/11/22 03:33:23;;;;;;;100.38;51.10;;;;;;;5.22;89.33;98720.72;4191536;83;21035;-82
2021/11/22 03:39:26;;;;;;;115.32;54.05;;;;;;;5.27;90.00;98729.42;4190551;83;21051;-83
2021/11/22 03:45:28;;;;;;;96.55;47.60;;;;;;;5.36;90.07;98738.19;4190677;83;21129;-83
2021/11/22 03:51:29;;;;;;;100.07;50.08;;;;;;;5.36;89.63;98747.70;4186388;83;21064;-82
2021/11/22 03:57:54;;;;;;;101.85;51.42;;;;;;;5.29;89.68;98748.88;4193409;83;21545;-82
2021/11/22 04:03:56;;;;;;;100.97;50.38;;;;;;;5.24;89.87;98747.76;4194742;83;21065;-82
2021/11/22 04:09:57;;;;;;;110.90;51.60;;;;;;;5.22;90.30;98769.02;4191824;83;21763;-82
2021/11/22 04:16:01;;;;;;;100.45;50.52;;;;;;;5.34;90.65;98759.45;4191179;83;21569;-82
2021/11/22 04:22:03;;;;;;;106.90;51.45;;;;;;;5.39;90.96;98760.58;4192020;83;21637;-82
2021/11/22 04:28:07;;;;;;;95.55;48.83;;;;;;;5.45;90.84;98768.69;4189413;82;21040;-82
2021/11/22 04:34:09;;;;;;;85.85;46.92;;;;;;;5.39;90.50;98770.63;4026601;84;62909;-82
2021/11/22 04:40:15;;;;;;;82.67;41.95;;;;;;;5.47;91.33;98779.20;3982833;88;21491;-82
2021/11/22 04:46:17;;;;;;;68.80;35.97;;;;;;;5.57;91.44;98795.00;3962629;88;21094;-82
2021/11/22 04:52:19;;;;;;;92.25;45.50;;;;;;;5.65;91.46;98780.48;4058193;86;21093;-82
2021/11/22 04:58:20;;;;;;;91.15;48.95;;;;;;;5.61;91.38;98781.73;4057321;86;21101;-82
2021/11/22 05:04:23;;;;;;;103.58;51.28;;;;;;;5.58;91.03;98778.36;4055953;86;21599;-82
2021/11/22 05:10:28;;;;;;;99.70;52.23;;;;;;;5.60;91.58;98782.09;4056650;86;21092;-82
2021/11/22 05:16:28;;;;;;;121.85;59.80;;;;;;;5.69;91.73;98796.29;4057577;86;21057;-82
2021/11/22 05:22:31;;;;;;;100.65;53.02;;;;;;;5.75;91.60;98807.12;4057556;86;21101;-82
2021/11/22 05:28:32;;;;;;;104.55;54.27;;;;;;;5.79;91.85;98816.97;4054822;85;21097;-82
2021/11/22 05:34:33;;;;;;;105.83;56.65;;;;;;;5.86;91.81;98822.61;4055478;86;21113;-83
2021/11/22 05:40:34;;;;;;;107.25;56.63;;;;;;;5.91;91.76;98824.28;4054663;86;21008;-82
2021/11/22 05:46:36;;;;;;;109.78;56.02;;;;;;;5.91;91.60;98829.15;4054199;86;21061;-82
2021/11/22 05:52:39;;;;;;;102.55;53.60;;;;;;;5.91;91.47;98820.20;4061425;86;21070;-83
2021/11/22 05:58:40;;;;;;;106.85;52.70;;;;;;;5.94;91.81;98824.94;4059346;86;21620;-82
2021/11/22 06:04:42;;;;;;;104.55;53.98;;;;;;;5.89;91.70;98832.77;4058920;87;21556;-82
2021/11/22 06:10:44;;;;;;;103.87;53.17;;;;;;;5.95;91.87;98829.25;4060480;86;21493;-82
2021/11/22 06:16:45;;;;;;;105.65;53.58;;;;;;;5.98;91.82;98847.57;4059740;86;21114;-81
2021/11/22 06:22:47;;;;;;;108.67;58.38;;;;;;;6.01;91.72;98862.59;4058410;86;21088;-82
2021/11/22 06:28:48;;;;;;;107.95;56.40;;;;;;;6.00;91.57;98883.31;4055459;86;21073;-82
2021/11/22 06:34:50;;;;;;;118.00;59.35;;;;;;;5.97;91.85;98892.96;4059181;86;21021;-82
2021/11/22 06:40:52;;;;;;;107.45;56.45;;;;;;;5.96;91.90;98902.27;4058809;86;21042;-82
2021/11/22 06:46:53;;;;;;;114.03;60.15;;;;;;;5.95;91.83;98906.69;4059919;86;21089;-82
2021/11/22 06:52:54;;;;;;;101.87;51.28;;;;;;;5.98;91.94;98905.99;4056740;86;21054;-82
2021/11/22 06:58:56;;;;;;;91.20;47.15;;;;;;;5.99;91.96;98905.64;4059155;86;22040;-82
2021/11/22 07:04:57;;;;;;;94.83;44.70;;;;;;;6.03;92.10;98911.95;4057805;86;21061;-82
2021/11/22 07:10:58;;;;;;;83.40;44.83;;;;;;;6.10;92.07;98916.80;4058579;86;21091;-82
2021/11/22 07:17:00;;;;;;;90.75;48.17;;;;;;;6.17;92.12;98920.48;4056627;86;21341;-82
2021/11/22 07:23:02;;;;;;;90.32;47.65;;;;;;;6.21;91.95;98930.91;4052747;86;21073;-82
2021/11/22 07:29:05;;;;;;;93.07;49.85;;;;;;;6.24;92.02;98941.64;4067800;85;21109;-82
2021/11/22 07:35:06;;;;;;;85.00;46.85;;;;;;;6.32;92.13;98948.30;4121555;85;21051;-82
2021/11/22 07:41:08;;;;;;;78.17;40.92;;;;;;;6.39;92.05;98953.11;4116471;85;21052;-83
2021/11/22 07:47:11;;;;;;;99.10;50.92;;;;;;;6.40;91.86;98958.78;4118859;85;21580;-83
2021/11/22 07:53:12;;;;;;;93.27;48.05;;;;;;;6.38;91.96;98968.65;4111598;85;21053;-82
2021/11/22 07:59:14;;;;;;;79.07;41.40;;;;;;;6.37;91.96;98974.44;4037886;87;21101;-82
2021/11/22 08:05:16;;;;;;;91.72;48.02;;;;;;;6.34;92.06;98975.91;4030541;87;21048;-83
2021/11/22 08:11:30;;;;;;;99.20;53.50;;;;;;;6.37;92.22;98980.64;4036205;87;21587;-82
2021/11/22 08:17:21;;;;;;;109.90;58.50;;;;;;;6.42;92.41;98985.63;3982873;88;21074;-82
2021/11/22 08:23:22;;;;;;;105.90;56.58;;;;;;;6.44;92.46;98992.28;3983981;88;21061;-83
2021/11/22 08:29:23;;;;;;;115.88;58.68;;;;;;;6.39;92.58;99000.13;3987350;88;21124;-83
2021/11/22 08:35:30;;;;;;;111.80;57.15;;;;;;;6.37;92.82;99005.11;4025425;87;21040;-82
2021/11/22 08:41:29;;;;;;;115.92;59.55;;;;;;;6.32;92.94;99013.55;3955958;88;21092;-82
2021/11/22 08:47:31;;;;;;;113.47;57.27;;;;;;;6.34;92.93;99025.43;4111597;85;21032;-82
2021/11/22 08:53:33;;;;;;;119.28;59.20;;;;;;;6.30;93.12;99024.52;4113244;85;21101;-82
2021/11/22 08:59:36;;;;;;;110.20;55.25;;;;;;;6.29;93.26;99029.19;4107427;85;21057;-82
2021/11/22 09:05:38;;;;;;;119.00;57.78;;;;;;;6.31;93.40;99028.84;4111645;85;21117;-84
2021/11/22 09:11:40;;;;;;;111.35;56.13;;;;;;;6.33;93.47;99023.27;4111225;85;21006;-83
2021/11/22 09:17:41;;;;;;;110.00;57.65;;;;;;;6.44;93.79;99031.72;4107006;85;21076;-83
2021/11/22 09:23:42;;;;;;;122.70;57.53;;;;;;;6.50;93.62;99034.41;4109362;85;21045;-83
2021/11/22 09:29:44;;;;;;;120.30;61.02;;;;;;;6.50;93.72;99038.48;4104627;85;21141;-84
2021/11/22 09:35:45;;;;;;;127.27;66.28;;;;;;;6.52;93.95;99036.22;4108785;85;21104;-84
2021/11/22 09:41:48;;;;;;;116.88;56.30;;;;;;;6.53;94.22;99039.15;4109873;85;21034;-84
2021/11/22 09:47:49;;;;;;;109.10;55.80;;;;;;;6.57;94.22;99038.69;4109581;85;21116;-84
2021/11/22 09:53:50;;;;;;;115.05;57.75;;;;;;;6.62;94.36;99044.45;4111540;85;21101;-84
2021/11/22 09:59:52;;;;;;;109.90;54.27;;;;;;;6.68;94.43;99048.49;4107226;85;21579;-83
2021/11/22 10:06:00;;;;;;;110.90;54.90;;;;;;;6.66;94.37;99052.92;4111072;85;21890;-84
2021/11/22 10:12:25;;;;;;;104.75;52.50;;;;;;;6.61;94.53;99049.09;4106334;85;21061;-84
2021/11/22 10:18:33;;;;;;;109.48;53.60;;;;;;;6.65;94.62;99051.91;4109323;85;21049;-83
2021/11/22 10:24:36;;;;;;;110.72;55.70;;;;;;;6.68;94.91;99045.21;4108511;85;21102;-85
2021/11/22 10:30:52;;;;;;;112.10;56.25;;;;;;;6.76;94.99;99046.98;4094768;85;21073;-83
2021/11/22 10:37:00;;;;;;;104.10;54.60;;;;;;;6.80;95.04;99048.42;4050545;86;22320;-83
2021/11/22 10:43:05;;;;;;;103.83;55.33;;;;;;;6.84;95.09;99045.23;4051187;86;21021;-82
2021/11/22 10:49:17;;;;;;;105.78;51.40;;;;;;;6.82;95.15;99047.51;4056924;86;21568;-83
2021/11/22 10:55:18;;;;;;;100.50;51.00;;;;;;;6.76;95.15;99057.88;4055553;86;21056;-83
2021/11/22 11:01:25;;;;;;;33.73;17.80;;;;;;;6.72;94.98;99063.00;4057038;86;21061;-81
2021/11/22 11:07:28;;;;;;;23.80;9.30;;;;;;;6.42;94.36;99074.00;4055427;86;21089;-83
2021/11/22 11:13:49;;;;;;;15.30;6.80;;;;;;;6.15;94.37;99076.32;4055969;86;21140;-83
2021/11/22 11:19:54;;;;;;;12.63;5.90;;;;;;;5.97;94.59;99080.45;4057294;86;21085;-83
2021/11/22 11:25:56;;;;;;;12.73;5.70;;;;;;;6.02;95.14;99082.14;4058504;86;21579;-83
2021/11/22 11:31:57;;;;;;;17.30;6.28;;;;;;;6.08;95.27;99087.55;4082853;85;21195;-82
2021/11/22 11:38:26;;;;;;;15.08;6.37;;;;;;;6.15;95.43;99085.83;4121408;85;21025;-83
2021/11/22 11:45:07;;;;;;;14.73;6.58;;;;;;;6.24;95.38;99087.07;4080928;85;21152;-84
2021/11/22 11:51:13;;;;;;;10.63;5.17;;;;;;;6.25;95.45;99085.92;4115699;85;21366;-83
2021/11/22 11:57:23;;;;;;;11.33;5.70;;;;;;;6.28;95.21;99096.11;4038677;87;21085;-83
2021/11/22 12:04:05;;;;;;;13.93;5.45;;;;;;;6.23;95.11;99100.45;4040157;87;21072;-83
2021/11/22 12:10:27;;;;;;;10.20;5.33;;;;;;;6.30;95.65;99104.72;4039259;87;21034;-82
2021/11/22 12:16:45;;;;;;;11.83;5.25;;;;;;;6.40;95.68;99111.82;4040845;87;21649;-84
2021/11/22 12:22:57;;;;;;;22.73;10.50;;;;;;;6.49;95.85;99107.62;4043536;87;21117;-84
2021/11/22 12:28:59;;;;;;;34.48;14.35;;;;;;;6.56;95.68;99113.83;4035537;87;21073;-84
2021/11/22 12:35:06;;;;;;;62.13;15.23;;;;;;;6.51;95.52;99118.95;3992916;87;21097;-83
2021/11/22 12:41:24;;;;;;;20.30;7.80;;;;;;;6.43;95.35;99122.59;4067102;86;21661;-82
2021/11/22 12:47:28;;;;;;;12.20;4.92;;;;;;;6.31;95.16;99124.00;4070520;85;21057;-83
2021/11/22 12:53:30;;;;;;;19.00;7.67;;;;;;;6.13;95.13;99138.41;4073200;87;21084;-82
2021/11/22 12:59:33;;;;;;;15.18;5.83;;;;;;;6.01;95.32;99142.48;4064052;85;21085;-83
2021/11/22 13:05:52;;;;;;;16.42;6.37;;;;;;;5.95;95.31;99153.94;4044284;87;21644;-83
2021/11/22 13:11:56;;;;;;;7.53;3.80;;;;;;;5.85;95.25;99158.45;4076971;86;20994;-83
2021/11/22 13:18:06;;;;;;;10.65;4.00;;;;;;;5.74;95.16;99169.52;4070454;85;21062;-82
2021/11/22 13:24:12;;;;;;;10.00;3.92;;;;;;;5.70;95.34;99176.18;4066540;85;21101;-84
2021/11/22 13:30:14;;;;;;;10.90;5.10;;;;;;;5.64;95.37;99185.69;4059778;85;21110;-83
2021/11/22 13:36:17;;;;;;;8.08;4.40;;;;;;;5.66;95.57;99185.34;4118406;85;21041;-83
2021/11/22 13:42:21;;;;;;;9.88;4.75;;;;;;;5.64;95.50;99187.05;4115979;85;21001;-84
2021/11/22 13:48:54;;;;;;;9.73;5.08;;;;;;;5.63;95.65;99192.81;4120144;85;21548;-83
2021/11/22 13:54:57;;;;;;;11.90;5.25;;;;;;;5.66;96.01;99198.92;4038313;87;21024;-83
2021/11/22 14:00:59;;;;;;;12.20;6.10;;;;;;;5.68;95.75;99215.69;4038731;87;21081;-83
2021/11/22 14:07:12;;;;;;;17.25;6.30;;;;;;;5.69;95.76;99218.06;4035151;87;21020;-83
2021/11/22 14:13:19;;;;;;;11.18;6.10;;;;;;;5.68;95.82;99230.07;4039151;87;21070;-83
2021/11/22 14:19:22;;;;;;;17.92;7.67;;;;;;;5.68;96.03;99231.98;4041277;87;21018;-83
2021/11/22 14:25:31;;;;;;;15.98;8.65;;;;;;;5.61;96.07;99230.38;4036507;87;21157;-83
2021/11/22 14:31:40;;;;;;;17.90;8.90;;;;;;;5.57;96.10;99237.61;4042069;86;21137;-83
2021/11/22 14:37:45;;;;;;;17.07;9.90;;;;;;;5.54;96.09;99251.87;4040322;87;21081;-83
2021/11/22 14:43:51;;;;;;;17.48;9.15;;;;;;;5.59;96.36;99255.73;4039613;87;21086;-84
2021/11/22 14:49:52;;;;;;;19.83;10.23;;;;;;;5.55;96.40;99260.23;4042252;87;21095;-83
2021/11/22 14:56:25;;;;;;;19.17;10.35;;;;;;;5.43;96.97;99272.42;4044072;87;21064;-83
2021/11/22 15:02:28;;;;;;;24.35;11.10;;;;;;;5.47;97.08;99281.47;3953376;88;21060;-83
2021/11/22 15:08:31;;;;;;;17.13;10.37;;;;;;;5.44;96.75;99282.14;4037613;87;21097;-83
2021/11/22 15:14:44;;;;;;;23.65;11.85;;;;;;;5.41;97.39;99288.24;4044731;87;21108;-83
2021/11/22 15:20:45;;;;;;;22.62;12.50;;;;;;;5.42;97.27;99287.91;4036992;87;21081;-83
2021/11/22 15:26:47;;;;;;;23.38;12.25;;;;;;;5.43;97.68;99285.44;4033172;87;21182;-84
2021/11/22 15:32:49;;;;;;;24.60;13.25;;;;;;;5.45;97.81;99281.81;4031983;87;21077;-82
2021/11/22 15:38:54;;;;;;;28.35;14.45;;;;;;;5.57;97.79;99298.16;4021319;87;21364;-83
2021/11/22 15:44:56;;;;;;;28.47;15.43;;;;;;;5.62;97.77;99301.23;4012130;87;21002;-85
2021/11/22 15:50:58;;;;;;;31.30;17.15;;;;;;;5.50;97.35;99309.31;4031949;87;21614;-84
2021/11/22 15:57:00;;;;;;;36.25;19.55;;;;;;;5.46;97.82;99320.63;4039688;87;21102;-83
2021/11/22 16:03:03;;;;;;;33.75;17.25;;;;;;;5.48;98.18;99333.31;4037746;87;21623;-83
2021/11/22 16:09:12;;;;;;;37.13;21.12;;;;;;;5.56;98.19;99336.52;4040014;87;21057;-83
2021/11/22 16:15:13;;;;;;;34.00;18.07;;;;;;;5.60;98.08;99342.30;4035783;87;21119;-83
2021/11/22 16:21:16;;;;;;;33.42;18.35;;;;;;;5.60;98.06;99346.37;4040560;87;21059;-83
2021/11/22 16:27:18;;;;;;;31.35;17.50;;;;;;;5.63;98.07;99358.48;4042226;87;21050;-82
2021/11/22 16:33:19;;;;;;;39.45;20.05;;;;;;;5.63;97.95;99357.12;4037385;87;21576;-82
2021/11/22 16:39:23;;;;;;;34.88;19.73;;;;;;;5.65;98.03;99359.75;4027270;87;21038;-83
2021/11/22 16:45:25;;;;;;;45.48;23.30;;;;;;;5.60;98.05;99376.80;4029548;87;21097;-83
2021/11/22 16:51:26;;;;;;;46.25;25.70;;;;;;;5.62;98.01;99382.70;4025655;87;21114;-83
2021/11/22 16:57:28;;;;;;;49.30;28.15;;;;;;;5.61;98.03;99379.73;4021445;87;21033;-82
2021/11/22 17:03:29;;;;;;;55.95;29.32;;;;;;;5.60;97.98;99387.11;4025257;87;21066;-82
2021/11/22 17:09:31;;;;;;;57.00;28.77;;;;;;;5.60;97.94;99405.32;4022722;87;21572;-83
2021/11/22 17:15:33;;;;;;;51.90;30.48;;;;;;;5.58;97.99;99415.71;4023341;87;21074;-82
2021/11/22 17:21:37;;;;;;;61.98;32.58;;;;;;;5.56;98.00;99416.05;4024888;87;21080;-83
2021/11/22 17:27:41;;;;;;;55.05;30.85;;;;;;;5.54;97.99;99420.23;4030223;87;21065;-82
2021/11/22 17:33:46;;;;;;;68.02;34.48;;;;;;;5.53;98.01;99431.64;4024026;87;21133;-82
2021/11/22 17:40:07;;;;;;;58.02;30.50;;;;;;;5.51;97.79;99443.97;4030353;87;21046;-83
2021/11/22 17:46:10;;;;;;;62.80;28.87;;;;;;;5.44;98.16;99443.14;4026825;87;21057;-82
2021/11/22 17:52:11;;;;;;;40.12;22.13;;;;;;;5.42;97.94;99452.75;4024759;87;21086;-82
2021/11/22 17:59:00;;;;;;;41.55;24.18;;;;;;;5.32;97.79;99459.91;4020881;87;21580;-82
2021/11/22 18:05:02;;;;;;;44.35;23.95;;;;;;;5.28;97.90;99472.56;4025794;87;21093;-83
2021/11/22 18:11:04;;;;;;;41.85;21.23;;;;;;;5.25;98.07;99480.78;4020240;87;21009;-83
2021/11/22 18:17:06;;;;;;;34.85;20.00;;;;;;;5.25;97.95;99486.20;4032257;87;21573;-82
2021/11/22 18:30:13;;;;;;;33.80;17.70;;;;;;;5.09;97.38;99499.32;4056846;88;21380;-83
2021/11/22 18:36:51;;;;;;;31.10;17.52;;;;;;;5.05;97.65;99510.57;4049578;86;21906;-82
2021/11/22 18:43:15;;;;;;;35.38;18.62;;;;;;;5.03;97.51;99511.48;4052259;86;21020;-83
2021/11/22 18:49:17;;;;;;;48.58;24.90;;;;;;;4.87;97.96;99518.56;4054331;86;21013;-82
2021/11/22 18:55:18;;;;;;;43.38;23.90;;;;;;;4.92;98.04;99525.95;4052384;86;21078;-82
2021/11/22 19:01:33;;;;;;;45.92;23.20;;;;;;;4.97;98.21;99527.13;4057674;87;21052;-83
2021/11/22 19:07:45;;;;;;;39.05;21.48;;;;;;;5.01;98.17;99528.09;4056238;86;21585;-82
2021/11/22 19:13:54;;;;;;;39.85;23.52;;;;;;;4.99;97.73;99535.75;4052596;86;21011;-82
2021/11/22 19:19:55;;;;;;;37.13;19.85;;;;;;;4.91;97.58;99546.06;4055092;86;21072;-82
2021/11/22 19:25:57;;;;;;;42.73;23.90;;;;;;;4.79;97.61;99551.37;4060571;86;21053;-82
2021/11/22 19:31:58;;;;;;;42.43;24.57;;;;;;;4.84;98.45;99564.19;4053803;86;21904;-82
2021/11/22 19:38:00;;;;;;;47.93;26.33;;;;;;;4.92;98.33;99571.29;4023136;86;21008;-82
2021/11/22 19:44:02;;;;;;;41.13;23.22;;;;;;;4.91;97.96;99571.84;4023996;87;21101;-82
2021/11/22 19:50:07;;;;;;;42.03;21.42;;;;;;;4.88;98.00;99586.05;4031484;87;21658;-82
2021/11/22 19:56:10;;;;;;;37.10;21.45;;;;;;;4.85;98.05;99586.70;4023928;87;21539;-83
2021/11/22 20:02:20;;;;;;;42.20;22.05;;;;;;;4.88;97.97;99591.48;4026014;87;21006;-82
2021/11/22 20:08:33;;;;;;;36.80;19.90;;;;;;;4.87;97.98;99598.00;3915636;86;9999935;-82
2021/11/22 20:14:28;;;;;;;36.33;19.80;;;;;;;4.87;98.09;99606.14;4018726;87;21553;-82
2021/11/22 20:20:44;;;;;;;42.67;22.87;;;;;;;4.89;98.11;99607.20;4029877;87;21030;-82
2021/11/22 20:26:48;;;;;;;45.10;23.43;;;;;;;4.89;97.90;99612.63;4030805;87;21022;-82
2021/11/22 20:32:52;;;;;;;44.53;23.60;;;;;;;4.89;97.95;99623.48;4026441;87;21185;-82
2021/11/22 20:53:01;;;;;;;38.40;21.10;;;;;;;4.78;97.67;99650.13;3989401;88;21854;-82
2021/11/22 20:59:04;;;;;;;43.60;22.48;;;;;;;4.75;97.95;99658.36;3984798;88;21104;-82
2021/11/22 21:05:07;;;;;;;38.02;22.25;;;;;;;4.80;98.02;99656.84;3986283;88;21069;-82
2021/11/22 21:11:12;;;;;;;40.38;22.02;;;;;;;4.83;98.01;99656.75;3986851;88;21458;-82
2021/11/22 21:17:14;;;;;;;33.65;20.37;;;;;;;4.84;97.89;99664.56;3984655;88;21557;-82
2021/11/22 21:23:16;;;;;;;38.38;20.90;;;;;;;4.82;97.60;99670.08;3983831;88;21627;-82
2021/11/22 21:29:19;;;;;;;44.63;22.07;;;;;;;4.73;97.36;99670.63;3955027;88;21414;-82
2021/11/22 21:35:22;;;;;;;36.13;19.55;;;;;;;4.75;97.69;99676.53;4042589;87;21114;-83
2021/11/22 21:41:23;;;;;;;41.13;20.30;;;;;;;4.70;97.30;99682.92;4044412;87;21069;-82
2021/11/22 21:54:27;;;;;;;27.55;15.43;;;;;;;4.66;97.36;99690.11;4035979;87;21059;-82
2021/11/22 22:00:28;;;;;;;32.17;17.52;;;;;;;4.45;96.30;99701.88;4040376;87;21081;-82
2021/11/22 22:06:31;;;;;;;27.22;15.80;;;;;;;4.26;96.50;99702.17;4041344;87;21081;-82
2021/11/22 22:12:33;;;;;;;36.15;19.37;;;;;;;4.10;96.38;99716.50;4040787;87;21189;-83
2021/11/22 22:18:36;;;;;;;34.88;16.93;;;;;;;3.98;96.15;99725.77;4041842;87;21030;-83
2021/11/22 22:24:37;;;;;;;50.60;20.68;;;;;;;3.91;95.98;99731.66;4036898;87;21948;-83
2021/11/22 22:30:39;;;;;;;27.48;15.78;;;;;;;3.85;95.75;99733.47;4037591;87;21187;-82
2021/11/22 22:36:44;;;;;;;36.80;18.87;;;;;;;3.83;95.81;99742.45;4039683;87;21085;-82
2021/11/22 22:42:46;;;;;;;28.50;15.98;;;;;;;3.86;95.85;99743.17;4029041;87;21065;-83
2021/11/22 22:48:47;;;;;;;30.90;16.67;;;;;;;3.84;95.67;99750.27;4029263;87;21989;-82
2021/11/22 22:54:52;;;;;;;31.75;17.37;;;;;;;3.83;95.71;99757.34;4028679;87;21034;-82
2021/11/22 23:01:07;;;;;;;29.52;13.95;;;;;;;3.77;95.37;99765.37;4027076;87;21032;-82
2021/11/22 23:07:10;;;;;;;28.87;14.53;;;;;;;3.63;94.94;99763.30;4024978;87;21134;-82
2021/11/22 23:13:14;;;;;;;18.87;11.60;;;;;;;3.62;95.63;99765.78;4029803;87;21045;-82
2021/11/22 23:19:15;;;;;;;19.90;13.25;;;;;;;3.75;95.82;99769.74;4028298;87;21535;-82
2021/11/22 23:25:16;;;;;;;20.48;13.40;;;;;;;3.82;95.58;99768.72;4027509;87;21121;-83
2021/11/22 23:31:18;;;;;;;20.65;12.37;;;;;;;3.86;95.32;99771.62;4028002;87;21050;-83
2021/11/22 23:37:20;;;;;;;18.95;11.57;;;;;;;3.87;95.30;99784.06;4013172;87;21113;-83
2021/11/22 23:43:23;;;;;;;18.75;12.05;;;;;;;3.90;95.43;99780.73;4067120;87;21606;-82
2021/11/22 23:49:24;;;;;;;22.87;12.55;;;;;;;3.87;95.12;99781.36;4073308;85;21010;-83
2021/11/22 23:55:40;;;;;;;19.80;11.97;;;;;;;3.84;94.93;99788.72;4067042;87;21161;-82
